Time;durP1;ratioP1;P1;durP2;ratioP2;P2;SDS_P1;SDS_P2;PMS_P1;PMS_P2;Temp;Humidity;BMP_temperature;BMP_pressure;BME280_temperature;BME280_humidity;BME280_pressure;Samples;Min_cycle;Max_cycle;Signal;HPM_P1;HPM_P2
2021/09/28 00:00:19;;;;;;;8.33;1.93;;;15.00;99.90;;;;;;5041616;28;20203;-56
2021/09/28 00:02:45;;;;;;;10.57;2.00;;;15.00;99.90;;;;;;5040640;28;20192;-46
2021/09/28 00:05:13;;;;;;;2.40;1.70;;;14.90;99.90;;;;;;5026984;28;20204;-49
2021/09/28 00:07:40;;;;;;;3.73;2.10;;;14.90;99.90;;;;;;5039169;28;20203;-49
2021/09/28 00:10:07;;;;;;;4.40;1.90;;;14.90;99.90;;;;;;5041985;28;20597;-51
2021/09/28 00:12:33;;;;;;;5.43;2.10;;;14.90;99.90;;;;;;5030738;28;20202;-48
2021/09/28 00:15:00;;;;;;;6.20;2.03;;;14.90;99.90;;;;;;5041990;28;20302;-53
2021/09/28 00:17:26;;;;;;;5.50;2.60;;;14.90;99.90;;;;;;5039589;28;20203;-55
2021/09/28 00:19:53;;;;;;;4.50;2.30;;;14.80;99.90;;;;;;5028129;28;20215;-51
2021/09/28 00:22:21;;;;;;;4.67;1.87;;;14.80;99.90;;;;;;5040985;28;20199;-55
2021/09/28 00:24:47;;;;;;;5.23;1.67;;;14.80;99.90;;;;;;5042698;28;20187;-57
2021/09/28 00:27:14;;;;;;;2.90;2.17;;;14.80;99.90;;;;;;5035276;28;20215;-52
2021/09/28 00:29:41;;;;;;;5.03;1.73;;;14.80;99.90;;;;;;5041351;28;20222;-52
2021/09/28 00:32:09;;;;;;;7.47;2.60;;;14.70;99.90;;;;;;5045138;28;20210;-56
2021/09/28 00:34:40;;;;;;;6.93;2.20;;;14.70;99.90;;;;;;5026849;28;20230;-58
2021/09/28 00:37:06;;;;;;;6.43;2.20;;;14.60;99.90;;;;;;5046261;28;20726;-50
2021/09/28 00:39:35;;;;;;;5.33;2.67;;;14.60;99.90;;;;;;5044015;28;20242;-57
2021/09/28 00:42:02;;;;;;;10.00;2.00;;;14.60;99.90;;;;;;5048359;28;20199;-57
2021/09/28 00:44:33;;;;;;;5.33;2.17;;;14.50;99.90;;;;;;5036633;28;20195;-49
2021/09/28 00:47:00;;;;;;;6.03;2.50;;;14.50;99.90;;;;;;5047890;28;20774;-53
2021/09/28 00:49:27;;;;;;;3.13;2.00;;;14.50;99.90;;;;;;5045024;28;20235;-49
2021/09/28 00:51:53;;;;;;;5.67;2.10;;;14.50;99.90;;;;;;5036297;28;20770;-55
2021/09/28 00:54:20;;;;;;;3.90;1.83;;;14.40;99.90;;;;;;5041185;28;20216;-52
2021/09/28 00:56:48;;;;;;;6.13;2.50;;;14.40;99.90;;;;;;5045599;28;20915;-54
2021/09/28 00:59:15;;;;;;;6.13;2.80;;;14.40;99.90;;;;;;5039676;28;20227;-47
2021/09/28 01:01:42;;;;;;;6.60;2.33;;;14.40;99.90;;;;;;5044700;28;20183;-56
2021/09/28 01:04:08;;;;;;;7.40;2.30;;;14.40;99.90;;;;;;5047632;28;20555;-54
2021/09/28 01:06:35;;;;;;;6.43;2.53;;;14.30;99.90;;;;;;5030359;28;20215;-54
2021/09/28 01:09:02;;;;;;;6.40;2.50;;;14.30;99.90;;;;;;5047599;28;20696;-54
2021/09/28 01:11:28;;;;;;;6.33;2.97;;;14.30;99.90;;;;;;5044182;28;20207;-49
2021/09/28 01:13:56;;;;;;;6.83;2.40;;;14.30;99.90;;;;;;5040012;28;20572;-58
2021/09/28 01:16:24;;;;;;;4.87;2.40;;;14.30;99.90;;;;;;5045363;28;20214;-49
2021/09/28 01:18:50;;;;;;;3.93;2.50;;;14.30;99.90;;;;;;5045908;28;20218;-58
2021/09/28 01:21:20;;;;;;;6.13;2.80;;;14.20;99.90;;;;;;5046109;28;20203;-50
2021/09/28 01:23:46;;;;;;;4.43;2.60;;;14.20;99.90;;;;;;5030050;28;20272;-50
2021/09/28 01:26:16;;;;;;;7.53;3.17;;;14.20;99.90;;;;;;5037259;28;20200;-58
2021/09/28 01:28:44;;;;;;;8.60;3.70;;;14.20;99.90;;;;;;5042281;28;20231;-50
2021/09/28 01:31:10;;;;;;;8.40;3.17;;;14.20;99.90;;;;;;5035221;28;20215;-55
2021/09/28 01:33:37;;;;;;;6.27;2.90;;;14.20;99.90;;;;;;5043312;28;20206;-50
2021/09/28 01:36:04;;;;;;;9.30;3.23;;;14.10;99.90;;;;;;5044528;28;20202;-58
2021/09/28 01:38:32;;;;;;;11.03;3.37;;;14.10;99.90;;;;;;5028438;28;20227;-46
2021/09/28 01:40:59;;;;;;;5.70;3.23;;;14.10;99.90;;;;;;5044864;28;20199;-48
2021/09/28 01:43:26;;;;;;;6.87;3.70;;;14.10;99.90;;;;;;5041024;28;20830;-51
2021/09/28 01:45:55;;;;;;;7.17;3.73;;;14.20;99.90;;;;;;5037580;28;20200;-50
2021/09/28 01:48:24;;;;;;;4.40;3.63;;;14.20;99.90;;;;;;5035798;28;20938;-53
2021/09/28 01:50:51;;;;;;;7.37;4.50;;;14.20;99.90;;;;;;5045334;28;20569;-49
2021/09/28 01:53:17;;;;;;;9.17;4.43;;;14.20;99.90;;;;;;5030425;28;20214;-59
2021/09/28 01:55:45;;;;;;;10.70;4.87;;;14.20;99.90;;;;;;5042246;28;20222;-51
2021/09/28 01:58:14;;;;;;;8.30;4.73;;;14.20;99.90;;;;;;5042421;28;20580;-57
2021/09/28 02:00:42;;;;;;;9.20;4.33;;;14.20;99.90;;;;;;5036566;28;20214;-51
2021/09/28 02:03:09;;;;;;;6.60;4.63;;;14.20;99.90;;;;;;5042462;28;20230;-58
2021/09/28 02:05:36;;;;;;;7.50;4.37;;;14.20;99.90;;;;;;5042131;28;20194;-46
2021/09/28 02:08:03;;;;;;;11.60;4.30;;;14.20;99.90;;;;;;5044466;28;20211;-58
2021/09/28 02:10:30;;;;;;;10.23;4.37;;;14.10;99.90;;;;;;5028147;28;20282;-49
2021/09/28 02:12:58;;;;;;;11.70;4.60;;;14.10;99.90;;;;;;5044431;28;20214;-54
2021/09/28 02:15:25;;;;;;;6.87;4.00;;;14.10;99.90;;;;;;5034497;28;20214;-57
2021/09/28 02:17:51;;;;;;;7.60;3.87;;;14.10;99.90;;;;;;5045711;28;20223;-53
2021/09/28 02:20:18;;;;;;;8.23;4.17;;;14.10;99.90;;;;;;5042889;28;20195;-50
2021/09/28 02:22:45;;;;;;;5.03;3.40;;;14.10;99.90;;;;;;5045541;28;20204;-55
2021/09/28 02:25:13;;;;;;;6.50;3.53;;;14.10;99.90;;;;;;5036807;28;20206;-48
2021/09/28 02:27:40;;;;;;;6.57;3.80;;;14.10;99.90;;;;;;5038842;28;20190;-57
2021/09/28 02:30:09;;;;;;;8.30;4.10;;;14.10;99.90;;;;;;5045093;28;20211;-54
2021/09/28 02:32:36;;;;;;;7.43;3.87;;;14.10;99.90;;;;;;5036681;28;20206;-54
2021/09/28 02:35:04;;;;;;;10.20;3.70;;;14.00;99.90;;;;;;5045140;28;20220;-51
2021/09/28 02:37:31;;;;;;;7.57;3.93;;;14.00;99.90;;;;;;5042031;28;20191;-57
2021/09/28 02:39:57;;;;;;;10.73;4.30;;;13.90;99.90;;;;;;5046023;28;20202;-56
2021/09/28 02:42:24;;;;;;;12.73;4.20;;;13.90;99.90;;;;;;5029302;28;20199;-55
2021/09/28 02:44:52;;;;;;;11.77;4.07;;;13.90;99.90;;;;;;5045841;28;20195;-52
2021/09/28 02:47:20;;;;;;;8.67;3.83;;;13.90;99.90;;;;;;5034718;28;20195;-49
2021/09/28 02:49:46;;;;;;;5.90;3.50;;;13.90;99.90;;;;;;5045279;28;20215;-55
2021/09/28 02:52:13;;;;;;;6.50;3.90;;;13.80;99.90;;;;;;5043674;28;20203;-48
2021/09/28 02:54:40;;;;;;;9.93;3.97;;;13.80;99.90;;;;;;5043653;28;20207;-55
2021/09/28 02:57:07;;;;;;;6.43;3.93;;;13.80;99.90;;;;;;5031081;28;20211;-50
2021/09/28 02:59:33;;;;;;;7.00;4.07;;;13.80;99.90;;;;;;5041626;28;20203;-57
2021/09/28 03:02:00;;;;;;;9.83;4.43;;;13.80;99.90;;;;;;5044941;28;20207;-49
2021/09/28 03:04:28;;;;;;;7.37;4.03;;;13.80;99.90;;;;;;5033726;28;20199;-56
2021/09/28 03:06:55;;;;;;;8.53;4.37;;;13.80;99.90;;;;;;5045049;28;20208;-53
2021/09/28 03:09:21;;;;;;;8.33;3.80;;;13.80;99.90;;;;;;5040412;28;20219;-51
2021/09/28 03:11:48;;;;;;;7.33;3.90;;;13.70;99.90;;;;;;5045348;28;20203;-56
2021/09/28 03:14:15;;;;;;;7.50;4.50;;;13.70;99.90;;;;;;5029315;28;20227;-51
2021/09/28 03:16:42;;;;;;;9.17;4.50;;;13.60;99.90;;;;;;5043505;28;20203;-54
2021/09/28 03:19:08;;;;;;;5.13;4.10;;;13.60;99.90;;;;;;5036038;28;20223;-54
2021/09/28 03:21:36;;;;;;;9.97;4.73;;;13.50;99.90;;;;;;5042663;28;20210;-54
2021/09/28 03:24:03;;;;;;;9.33;4.83;;;13.50;99.90;;;;;;5043958;28;20206;-50
2021/09/28 03:26:30;;;;;;;8.80;4.50;;;13.50;99.90;;;;;;5039360;28;20214;-55
2021/09/28 03:28:56;;;;;;;10.13;4.83;;;13.50;99.90;;;;;;5029642;28;20462;-53
2021/09/28 03:31:23;;;;;;;10.00;4.90;;;13.50;99.90;;;;;;5032406;28;20187;-53
2021/09/28 03:33:49;;;;;;;11.93;5.53;;;13.40;99.90;;;;;;5035631;28;20195;-55
2021/09/28 03:36:16;;;;;;;13.23;4.90;;;13.50;99.90;;;;;;5040572;28;20227;-49
2021/09/28 03:38:44;;;;;;;10.23;5.23;;;13.40;99.90;;;;;;5036106;28;20234;-55
2021/09/28 03:41:10;;;;;;;11.73;5.30;;;13.40;99.90;;;;;;5043360;28;20564;-52
2021/09/28 03:43:37;;;;;;;11.20;5.07;;;13.40;99.90;;;;;;5043133;28;20187;-57
2021/09/28 03:46:04;;;;;;;12.43;5.40;;;13.40;99.90;;;;;;5030334;28;20207;-53
2021/09/28 03:48:31;;;;;;;11.53;5.20;;;13.40;99.90;;;;;;5033492;28;20227;-57
2021/09/28 03:50:58;;;;;;;14.20;6.37;;;13.40;99.90;;;;;;5044195;28;20200;-51
2021/09/28 03:53:24;;;;;;;9.60;5.47;;;13.40;99.90;;;;;;5040592;28;20199;-56
2021/09/28 03:55:52;;;;;;;12.57;5.53;;;13.40;99.90;;;;;;5043260;28;20219;-50
2021/09/28 03:58:19;;;;;;;12.40;5.90;;;13.30;99.90;;;;;;5039304;28;20234;-52
2021/09/28 04:00:46;;;;;;;10.10;5.37;;;13.30;99.90;;;;;;5028601;28;20727;-47
2021/09/28 04:03:12;;;;;;;9.60;5.50;;;13.30;99.90;;;;;;5040462;28;20203;-56
2021/09/28 04:05:40;;;;;;;11.27;6.00;;;13.30;99.90;;;;;;5033839;28;20482;-48
2021/09/28 04:08:07;;;;;;;10.27;5.30;;;13.30;99.90;;;;;;5036837;28;20604;-57
2021/09/28 04:10:35;;;;;;;9.07;5.10;;;13.30;99.90;;;;;;5041841;28;20192;-49
2021/09/28 04:13:03;;;;;;;7.80;4.87;;;13.30;99.90;;;;;;5046830;28;20192;-57
2021/09/28 04:15:37;;;;;;;9.57;5.10;;;13.30;99.90;;;;;;5030433;28;20223;-49
2021/09/28 04:18:04;;;;;;;13.73;5.53;;;13.20;99.90;;;;;;5045322;28;20742;-57
2021/09/28 04:20:33;;;;;;;12.07;5.27;;;13.20;99.90;;;;;;5036020;28;20195;-53
2021/09/28 04:23:00;;;;;;;10.47;5.20;;;13.20;99.90;;;;;;5038459;28;20282;-49
2021/09/28 04:25:27;;;;;;;11.77;5.33;;;13.20;99.90;;;;;;5035332;28;20202;-52
2021/09/28 04:27:53;;;;;;;9.17;5.03;;;13.20;99.90;;;;;;5046279;28;20219;-51
2021/09/28 04:30:21;;;;;;;9.57;4.40;;;13.20;99.90;;;;;;5031499;28;20686;-56
2021/09/28 04:32:48;;;;;;;5.27;4.80;;;13.30;99.90;;;;;;5046092;28;20691;-49
2021/09/28 04:35:14;;;;;;;14.17;4.90;;;13.20;99.90;;;;;;5039827;28;20218;-57
2021/09/28 04:37:41;;;;;;;8.63;4.93;;;13.10;99.90;;;;;;5037506;28;20207;-51
2021/09/28 04:40:08;;;;;;;13.17;5.00;;;13.10;99.90;;;;;;5044930;28;20195;-57
2021/09/28 04:42:35;;;;;;;10.70;4.60;;;13.10;99.90;;;;;;5044087;28;20909;-54
2021/09/28 04:45:03;;;;;;;8.63;4.50;;;13.10;99.90;;;;;;5045717;28;20203;-55
2021/09/28 04:47:31;;;;;;;7.20;4.37;;;13.10;99.90;;;;;;5027355;28;20207;-49
2021/09/28 04:49:58;;;;;;;18.17;4.83;;;13.10;99.90;;;;;;5046059;28;20214;-51
2021/09/28 04:52:25;;;;;;;11.50;5.77;;;13.00;99.90;;;;;;5029193;28;20187;-46
2021/09/28 04:54:51;;;;;;;9.97;4.50;;;13.00;99.90;;;;;;5045818;28;20588;-49
2021/09/28 04:57:18;;;;;;;10.53;4.47;;;13.00;99.90;;;;;;5042535;28;20207;-57
2021/09/28 04:59:45;;;;;;;7.07;4.23;;;13.00;99.90;;;;;;5045632;28;20215;-50
2021/09/28 05:02:11;;;;;;;7.97;4.70;;;12.90;99.90;;;;;;5030717;28;20207;-56
2021/09/28 05:04:39;;;;;;;9.33;4.80;;;13.00;99.90;;;;;;5043937;28;20188;-51
2021/09/28 05:07:06;;;;;;;19.13;6.83;;;13.00;99.90;;;;;;5037128;28;20195;-57
2021/09/28 05:09:32;;;;;;;16.53;6.20;;;13.00;99.90;;;;;;5037800;28;20226;-48
2021/09/28 05:11:59;;;;;;;12.10;5.23;;;12.90;99.90;;;;;;5045719;28;20207;-50
2021/09/28 05:14:26;;;;;;;8.67;4.80;;;12.90;99.90;;;;;;5034261;28;20191;-50
2021/09/28 05:16:53;;;;;;;10.73;5.10;;;12.80;99.90;;;;;;5042386;28;20230;-57
2021/09/28 05:19:19;;;;;;;14.77;4.17;;;12.80;99.90;;;;;;5026296;28;20226;-50
2021/09/28 05:21:48;;;;;;;9.77;4.23;;;;;;;;;;5044089;28;20229;-51
2021/09/28 05:24:14;;;;;;;11.67;5.50;;;12.70;99.90;;;;;;5020838;28;20558;-52
2021/09/28 05:26:41;;;;;;;12.07;5.20;;;12.60;99.90;;;;;;5039903;28;20195;-51
2021/09/28 05:29:08;;;;;;;10.37;4.90;;;12.60;99.90;;;;;;5040556;28;20230;-51
2021/09/28 05:31:34;;;;;;;12.00;5.63;;;12.50;99.90;;;;;;5041834;28;20311;-58
2021/09/28 05:34:01;;;;;;;18.50;7.10;;;12.50;99.90;;;;;;5031419;28;20230;-50
2021/09/28 05:36:28;;;;;;;18.70;5.97;;;12.50;99.90;;;;;;5036960;28;20222;-55
2021/09/28 05:38:56;;;;;;;15.53;5.20;;;12.50;99.90;;;;;;5032878;28;20249;-49
2021/09/28 05:41:22;;;;;;;9.10;4.00;;;12.50;99.90;;;;;;5038812;28;20200;-58
2021/09/28 05:43:51;;;;;;;9.27;4.00;;;12.50;99.90;;;;;;5034974;28;20211;-52
2021/09/28 05:46:18;;;;;;;8.50;3.70;;;12.50;99.90;;;;;;5044679;28;20195;-51
2021/09/28 05:48:44;;;;;;;11.37;3.33;;;12.50;99.90;;;;;;5025845;28;20809;-49
2021/09/28 05:51:16;;;;;;;12.77;5.10;;;12.50;99.90;;;;;;5037701;28;20200;-51
2021/09/28 05:53:44;;;;;;;15.03;4.20;;;12.50;99.90;;;;;;5030227;28;20216;-50
2021/09/28 05:56:12;;;;;;;8.50;4.50;;;12.40;99.90;;;;;;5034934;28;20630;-55
2021/09/28 05:58:39;;;;;;;8.37;3.63;;;12.50;99.90;;;;;;5039814;28;20951;-54
2021/09/28 06:01:05;;;;;;;7.80;3.33;;;12.50;99.90;;;;;;5040228;28;20218;-53
2021/09/28 06:03:32;;;;;;;9.23;3.57;;;12.50;99.90;;;;;;5032448;28;20211;-59
2021/09/28 06:05:59;;;;;;;3.87;2.70;;;12.50;99.90;;;;;;5034961;28;20207;-48
2021/09/28 06:08:26;;;;;;;7.20;3.13;;;12.50;99.90;;;;;;5042567;28;20218;-56
2021/09/28 06:10:52;;;;;;;6.47;3.03;;;12.50;99.90;;;;;;5028700;28;22771;-48
2021/09/28 06:13:20;;;;;;;8.17;2.40;;;12.60;99.90;;;;;;5039282;28;20257;-48
2021/09/28 06:15:47;;;;;;;9.60;2.57;;;12.60;99.90;;;;;;5037873;28;20222;-54
2021/09/28 06:18:13;;;;;;;7.67;3.47;;;12.60;99.90;;;;;;5046521;28;20234;-56
2021/09/28 06:20:40;;;;;;;5.67;2.80;;;12.70;99.90;;;;;;5028612;28;20264;-56
2021/09/28 06:23:07;;;;;;;8.60;2.87;;;12.70;99.90;;;;;;5041540;28;20215;-54
2021/09/28 06:25:33;;;;;;;14.30;2.90;;;12.70;99.90;;;;;;5036562;28;20203;-50
2021/09/28 06:28:00;;;;;;;6.87;3.60;;;12.80;99.90;;;;;;5037969;28;20226;-54
2021/09/28 06:30:28;;;;;;;6.90;3.00;;;12.80;99.90;;;;;;5042730;28;20208;-51
2021/09/28 06:32:54;;;;;;;5.53;3.00;;;12.80;99.90;;;;;;5039415;28;20211;-55
2021/09/28 06:35:21;;;;;;;9.70;3.00;;;12.90;99.90;;;;;;5029040;28;20227;-52
2021/09/28 06:37:48;;;;;;;7.57;2.47;;;13.00;99.90;;;;;;5016366;28;20204;-51
2021/09/28 06:40:15;;;;;;;4.83;2.10;;;13.00;99.90;;;;;;5027181;28;20210;-56
2021/09/28 06:42:41;;;;;;;7.27;2.80;;;13.10;99.90;;;;;;5037288;28;20210;-51
2021/09/28 06:45:09;;;;;;;7.40;2.90;;;13.00;99.90;;;;;;5039029;28;20198;-54
2021/09/28 06:47:37;;;;;;;8.27;2.90;;;13.00;99.90;;;;;;5044676;28;20206;-56
2021/09/28 06:50:04;;;;;;;8.83;2.60;;;12.90;99.90;;;;;;5026948;28;20199;-55
2021/09/28 06:52:30;;;;;;;9.30;2.63;;;13.00;99.90;;;;;;5043683;28;20204;-50
2021/09/28 06:54:57;;;;;;;5.63;2.33;;;13.00;99.90;;;;;;5041090;28;20199;-52
2021/09/28 06:57:24;;;;;;;7.93;2.37;;;13.00;99.90;;;;;;5018100;28;20234;-56
2021/09/28 06:59:50;;;;;;;8.50;2.93;;;13.00;99.90;;;;;;5037662;28;20227;-57
2021/09/28 07:02:17;;;;;;;3.53;2.50;;;13.00;99.90;;;;;;5034919;28;20256;-50
2021/09/28 07:04:45;;;;;;;4.27;2.60;;;13.00;99.90;;;;;;5035942;28;20195;-57
2021/09/28 07:07:11;;;;;;;4.73;2.40;;;13.00;99.90;;;;;;5022494;28;20199;-53
2021/09/28 07:09:38;;;;;;;7.20;2.77;;;13.10;99.90;;;;;;5038451;28;20250;-46
2021/09/28 07:12:06;;;;;;;3.53;2.50;;;13.10;99.90;;;;;;5031288;28;20206;-56
2021/09/28 07:14:33;;;;;;;6.90;3.20;;;13.10;99.90;;;;;;5024071;28;20191;-57
2021/09/28 07:16:59;;;;;;;6.97;2.40;;;13.10;99.90;;;;;;5038538;28;20219;-54
2021/09/28 07:19:26;;;;;;;5.80;2.90;;;13.10;99.90;;;;;;5030513;28;20246;-48
2021/09/28 07:21:54;;;;;;;10.13;2.93;;;13.20;99.90;;;;;;5024279;28;20485;-48
2021/09/28 07:24:20;;;;;;;10.70;3.90;;;13.20;99.90;;;;;;5034395;28;20195;-48
2021/09/28 07:26:47;;;;;;;7.43;3.33;;;13.30;99.90;;;;;;5028344;28;20188;-56
2021/09/28 07:29:14;;;;;;;7.10;2.63;;;13.30;99.90;;;;;;5036083;28;20234;-52
2021/09/28 07:31:41;;;;;;;7.77;3.07;;;13.40;99.90;;;;;;5038590;28;20200;-55
2021/09/28 07:34:09;;;;;;;6.67;3.27;;;13.50;99.90;;;;;;5035492;28;20216;-50
2021/09/28 07:36:36;;;;;;;4.90;3.10;;;13.50;99.90;;;;;;5023665;28;20223;-56
2021/09/28 07:39:05;;;;;;;7.13;3.27;;;13.60;99.90;;;;;;5022172;28;20592;-50
2021/09/28 07:41:32;;;;;;;5.47;3.27;;;13.70;99.90;;;;;;5038565;28;20197;-50
2021/09/28 07:43:59;;;;;;;7.23;3.87;;;13.70;99.90;;;;;;5030967;28;20207;-52
2021/09/28 07:46:26;;;;;;;5.30;3.37;;;13.70;99.90;;;;;;5037438;28;20210;-57
2021/09/28 07:48:52;;;;;;;5.70;3.20;;;13.80;99.90;;;;;;5038648;28;20234;-51
2021/09/28 07:51:19;;;;;;;7.50;3.80;;;13.80;99.90;;;;;;5040624;28;20201;-53
2021/09/28 07:53:49;;;;;;;6.73;3.50;;;13.80;99.90;;;;;;5028634;28;20205;-52
2021/09/28 07:56:19;;;;;;;9.43;3.47;;;13.90;99.90;;;;;;5040585;28;20215;-55
2021/09/28 07:58:46;;;;;;;5.47;3.73;;;14.00;99.90;;;;;;5032854;28;20227;-49
2021/09/28 08:01:13;;;;;;;7.73;3.23;;;14.10;99.90;;;;;;5045662;28;20195;-53
2021/09/28 08:03:39;;;;;;;9.23;4.20;;;14.20;99.90;;;;;;5038789;28;20840;-54
2021/09/28 08:06:06;;;;;;;5.37;2.77;;;14.20;99.90;;;;;;5042190;28;20207;-50
2021/09/28 08:08:33;;;;;;;8.67;3.47;;;14.20;99.90;;;;;;5029267;28;20811;-51
2021/09/28 08:10:59;;;;;;;8.03;3.13;;;14.30;99.90;;;;;;5041458;28;20542;-52
2021/09/28 08:13:27;;;;;;;7.90;2.50;;;14.40;99.90;;;;;;5036130;28;20219;-56
2021/09/28 08:15:55;;;;;;;4.83;2.87;;;14.30;99.90;;;;;;5042446;28;20222;-48
2021/09/28 08:18:22;;;;;;;6.93;2.90;;;14.20;99.90;;;;;;5042098;28;20207;-48
2021/09/28 08:20:49;;;;;;;4.63;2.67;;;14.30;99.90;;;;;;5044523;28;20207;-58
2021/09/28 08:23:17;;;;;;;4.83;2.60;;;14.30;99.90;;;;;;5030853;28;20253;-50
2021/09/28 08:25:59;;;;;;;6.00;2.60;;;14.40;99.90;;;;;;5039384;28;20242;-56
2021/09/28 08:31:12;;;;;;;4.43;2.63;;;14.50;99.90;;;;;;5046152;28;20204;-53
2021/09/28 08:33:39;;;;;;;5.20;2.50;;;14.60;99.90;;;;;;5046642;28;20191;-58
2021/09/28 08:36:07;;;;;;;5.37;2.63;;;14.70;99.90;;;;;;5044095;28;20215;-56
2021/09/28 08:38:34;;;;;;;4.63;2.40;;;14.70;99.90;;;;;;5026135;28;20227;-58
2021/09/28 08:41:01;;;;;;;6.10;2.47;;;14.80;99.90;;;;;;5047899;28;20200;-57
2021/09/28 08:43:30;;;;;;;3.00;2.00;;;14.90;99.90;;;;;;5036538;28;20211;-54
2021/09/28 08:45:57;;;;;;;5.23;1.90;;;15.00;99.90;;;;;;5040697;28;20215;-58
2021/09/28 08:48:23;;;;;;;5.03;1.70;;;15.10;99.90;;;;;;5039511;28;20243;-52
2021/09/28 08:50:52;;;;;;;5.10;1.80;;;15.10;99.90;;;;;;5039233;28;20199;-55
2021/09/28 08:53:20;;;;;;;4.83;1.80;;;15.20;99.90;;;;;;5043208;28;20290;-53
2021/09/28 08:55:47;;;;;;;6.13;2.10;;;15.30;99.90;;;;;;5029375;28;20203;-57
2021/09/28 08:58:15;;;;;;;5.03;1.80;;;15.40;99.90;;;;;;5037131;28;20222;-50
2021/09/28 09:00:44;;;;;;;3.73;1.50;;;15.50;99.90;;;;;;5034033;28;20696;-57
2021/09/28 09:03:25;;;;;;;2.33;1.53;;;15.50;99.90;;;;;;5037548;28;20584;-51
2021/09/28 09:05:52;;;;;;;2.87;1.10;;;15.60;99.90;;;;;;5042019;28;20199;-56
2021/09/28 09:08:25;;;;;;;5.00;1.50;;;15.70;99.90;;;;;;5044814;28;21834;-51
2021/09/28 09:11:00;;;;;;;1.77;1.17;;;15.80;99.90;;;;;;5033639;28;20239;-58
2021/09/28 09:13:35;;;;;;;3.73;1.47;;;15.90;99.90;;;;;;5042223;28;20202;-56
2021/09/28 09:16:04;;;;;;;4.30;1.13;;;15.90;99.90;;;;;;5044601;28;20211;-56
2021/09/28 09:18:32;;;;;;;2.03;1.17;;;16.00;99.90;;;;;;5022124;28;20222;-57
2021/09/28 09:20:59;;;;;;;4.40;1.00;;;16.00;99.90;;;;;;5043594;28;20203;-53
2021/09/28 09:23:28;;;;;;;3.30;1.07;;;16.10;99.90;;;;;;5036265;28;20305;-55
2021/09/28 09:26:10;;;;;;;2.53;0.93;;;16.10;99.90;;;;;;5043891;28;20203;-57
2021/09/28 09:28:40;;;;;;;5.07;1.10;;;16.20;99.90;;;;;;5043176;28;20223;-51
2021/09/28 09:31:24;;;;;;;3.93;1.00;;;16.30;99.90;;;;;;5035198;28;20207;-57
2021/09/28 09:33:54;;;;;;;3.90;1.20;;;16.30;99.90;;;;;;5037570;28;20256;-53
2021/09/28 09:36:22;;;;;;;3.83;1.00;;;16.30;99.90;;;;;;5022448;28;20819;-57
2021/09/28 09:38:50;;;;;;;2.27;1.43;;;16.50;99.90;;;;;;5035124;28;20223;-49
2021/09/28 09:41:18;;;;;;;3.67;1.80;;;16.50;99.90;;;;;;5023316;28;20218;-50
2021/09/28 09:43:48;;;;;;;4.27;1.10;;;16.60;99.90;;;;;;5041215;28;20665;-49
2021/09/28 09:46:19;;;;;;;4.37;1.30;;;16.70;99.90;;;;;;5036431;28;20202;-48
2021/09/28 09:48:49;;;;;;;2.70;0.60;;;16.70;99.90;;;;;;5037313;28;20669;-51
2021/09/28 09:51:17;;;;;;;5.00;0.90;;;16.80;99.90;;;;;;5036218;28;20214;-48
2021/09/28 09:53:59;;;;;;;2.50;0.70;;;16.80;99.90;;;;;;5039907;28;20264;-49
2021/09/28 09:56:51;;;;;;;4.90;0.97;;;16.90;99.90;;;;;;5038277;28;20319;-47
2021/09/28 09:59:19;;;;;;;7.77;0.93;;;16.90;99.90;;;;;;5028828;28;20223;-53
2021/09/28 10:01:47;;;;;;;2.00;0.70;;;16.90;99.90;;;;;;5039886;28;20720;-52
2021/09/28 10:04:16;;;;;;;2.00;1.03;;;17.10;99.90;;;;;;5036870;28;20191;-58
2021/09/28 10:06:43;;;;;;;4.87;1.50;;;17.10;99.90;;;;;;5041780;28;20198;-56
2021/09/28 10:09:13;;;;;;;6.70;1.50;;;17.10;99.90;;;;;;5037297;28;20231;-48
2021/09/28 10:11:41;;;;;;;4.57;1.07;;;17.10;99.90;;;;;;5042655;28;20284;-56
2021/09/28 10:14:08;;;;;;;1.37;0.70;;;17.10;99.90;;;;;;5030009;28;20211;-53
2021/09/28 10:16:40;;;;;;;2.63;0.60;;;17.20;99.90;;;;;;5035563;28;20216;-54
2021/09/28 10:19:41;;;;;;;1.13;0.60;;;17.20;99.90;;;;;;5032848;28;20272;-50
2021/09/28 10:22:52;;;;;;;4.40;1.30;;;17.30;99.90;;;;;;5037319;28;20261;-53
2021/09/28 10:25:46;;;;;;;3.00;0.70;;;17.30;99.90;;;;;;5036046;28;20194;-56
2021/09/28 10:28:30;;;;;;;4.20;0.83;;;17.40;99.90;;;;;;5026995;28;20225;-53
2021/09/28 10:30:57;;;;;;;2.10;0.80;;;17.40;99.90;;;;;;5035256;28;20207;-52
2021/09/28 10:33:30;;;;;;;1.37;0.80;;;17.50;99.90;;;;;;5031091;28;20280;-51
2021/09/28 10:35:59;;;;;;;2.50;1.07;;;17.60;99.90;;;;;;5031036;28;20209;-52
2021/09/28 10:38:59;;;;;;;3.27;0.87;;;17.60;99.90;;;;;;5032664;28;20203;-55
2021/09/28 10:41:48;;;;;;;3.67;0.80;;;17.70;99.90;;;;;;5038107;28;20866;-52
2021/09/28 10:44:50;;;;;;;3.13;0.87;;;17.70;99.90;;;;;;5024476;28;20954;-55
2021/09/28 10:47:53;;;;;;;2.13;1.60;;;17.70;99.90;;;;;;5036439;28;20196;-51
2021/09/28 10:50:31;;;;;;;3.13;0.50;;;17.80;99.90;;;;;;5024477;28;20222;-51
2021/09/28 10:52:59;;;;;;;4.63;0.80;;;17.80;99.90;;;;;;5039380;28;20210;-58
2021/09/28 10:55:40;;;;;;;3.27;0.50;;;17.80;99.90;;;;;;5035570;28;20257;-47
2021/09/28 10:58:22;;;;;;;6.50;0.87;;;17.90;99.90;;;;;;5019884;28;20230;-48
2021/09/28 11:01:15;;;;;;;2.90;0.50;;;18.00;99.90;;;;;;5019136;28;20195;-48
2021/09/28 11:04:03;;;;;;;2.47;0.40;;;17.90;99.90;;;;;;5030299;28;20278;-53
2021/09/28 11:06:58;;;;;;;1.13;0.50;;;17.90;99.90;;;;;;5021383;28;20217;-59
2021/09/28 11:09:42;;;;;;;1.93;1.03;;;17.90;99.90;;;;;;5036317;28;20227;-57
2021/09/28 11:12:10;;;;;;;1.70;0.63;;;18.00;99.90;;;;;;5039179;28;20486;-49
2021/09/28 11:14:38;;;;;;;2.77;0.83;;;18.00;99.90;;;;;;5021394;28;20191;-56
2021/09/28 11:17:16;;;;;;;3.63;0.60;;;18.10;99.90;;;;;;5041086;28;20215;-51
2021/09/28 11:19:43;;;;;;;1.80;0.57;;;18.20;99.90;;;;;;5030715;28;20214;-54
2021/09/28 11:22:16;;;;;;;3.17;1.60;;;18.20;99.90;;;;;;5042496;28;20212;-53
2021/09/28 11:24:43;;;;;;;0.47;0.47;;;18.30;99.90;;;;;;5038522;28;20279;-56
2021/09/28 11:27:11;;;;;;;2.60;0.70;;;18.30;99.90;;;;;;5042416;28;20242;-50
2021/09/28 11:29:39;;;;;;;1.63;0.40;;;18.20;99.90;;;;;;5027629;28;20588;-60
2021/09/28 11:32:07;;;;;;;0.87;0.43;;;18.10;99.90;;;;;;5041060;28;20215;-53
2021/09/28 11:34:35;;;;;;;2.33;0.63;;;18.00;99.90;;;;;;5040134;28;20203;-57
2021/09/28 11:37:04;;;;;;;2.83;0.83;;;18.20;99.90;;;;;;5034633;28;20215;-50
2021/09/28 11:39:35;;;;;;;2.70;0.50;;;18.30;99.90;;;;;;5041270;28;20233;-56
2021/09/28 11:42:01;;;;;;;2.67;0.60;;;18.30;99.90;;;;;;5043566;28;20207;-56
2021/09/28 11:44:47;;;;;;;2.20;0.50;;;18.40;99.90;;;;;;5043151;28;20647;-50
2021/09/28 11:47:16;;;;;;;2.40;0.70;;;18.30;99.90;;;;;;5031379;28;20274;-58
2021/09/28 11:49:58;;;;;;;1.50;0.40;;;18.30;99.90;;;;;;5040220;28;20218;-57
2021/09/28 11:52:25;;;;;;;2.37;0.40;;;18.20;99.90;;;;;;5032544;28;20203;-53
2021/09/28 11:54:52;;;;;;;1.13;0.30;;;18.20;99.90;;;;;;5042031;28;20202;-57
2021/09/28 11:57:20;;;;;;;2.30;0.60;;;18.20;99.90;;;;;;5043946;28;20215;-57
2021/09/28 11:59:49;;;;;;;1.70;0.63;;;18.20;99.90;;;;;;5039784;28;20213;-49
2021/09/28 12:02:18;;;;;;;2.43;0.83;;;18.30;99.90;;;;;;5026768;28;20226;-56
2021/09/28 12:10:23;;;;;;;0.50;0.30;;;18.40;99.90;;;;;;5042385;28;20210;-58
2021/09/28 12:12:50;;;;;;;2.17;0.40;;;18.50;99.90;;;;;;5039655;28;20199;-47
2021/09/28 12:15:19;;;;;;;1.00;0.40;;;18.40;99.90;;;;;;5043147;28;20888;-54
2021/09/28 12:17:47;;;;;;;2.63;0.67;;;18.50;99.90;;;;;;5025591;28;20230;-52
2021/09/28 12:20:16;;;;;;;1.03;0.60;;;18.60;99.90;;;;;;5042368;28;20211;-52
2021/09/28 12:22:46;;;;;;;1.80;0.67;;;18.60;99.90;;;;;;5030563;28;20217;-52
2021/09/28 12:25:15;;;;;;;1.80;0.40;;;18.80;99.90;;;;;;5042352;28;20199;-51
2021/09/28 12:27:57;;;;;;;4.03;2.23;;;18.90;99.90;;;;;;5038151;28;20195;-52
2021/09/28 12:30:27;;;;;;;2.37;0.70;;;18.90;99.90;;;;;;5041854;28;20290;-57
2021/09/28 12:32:55;;;;;;;2.00;0.67;;;18.80;99.90;;;;;;5031273;28;20440;-50
2021/09/28 12:35:33;;;;;;;3.20;0.50;;;18.80;99.90;;;;;;5045615;28;20630;-56
2021/09/28 12:38:01;;;;;;;1.90;0.60;;;18.90;99.90;;;;;;5044618;28;20222;-48
2021/09/28 12:40:30;;;;;;;2.13;0.70;;;19.00;99.90;;;;;;5036832;28;20227;-52
2021/09/28 12:43:03;;;;;;;3.13;0.83;;;19.00;99.90;;;;;;5044512;28;20187;-51
2021/09/28 12:45:43;;;;;;;2.20;0.53;;;19.10;99.90;;;;;;5043846;28;20203;-55
2021/09/28 12:48:10;;;;;;;0.87;0.80;;;19.20;99.90;;;;;;5032277;28;20218;-52
2021/09/28 12:50:37;;;;;;;1.97;0.60;;;19.40;99.90;;;;;;5042026;28;20207;-52
2021/09/28 12:53:08;;;;;;;0.97;0.70;;;19.60;99.90;;;;;;5046701;28;20195;-58
2021/09/28 12:55:37;;;;;;;3.47;0.50;;;19.60;99.90;;;;;;5037196;28;20278;-56
2021/09/28 12:58:05;;;;;;;3.20;0.70;;;19.60;99.90;;;;;;5047335;28;20276;-58
2021/09/28 13:00:32;;;;;;;1.70;1.17;;;19.60;99.90;;;;;;5045716;28;20207;-55
2021/09/28 13:03:02;;;;;;;2.00;0.90;;;19.80;99.90;;;;;;5030406;28;20218;-57